Time;durP1;ratioP1;P1;durP2;ratioP2;P2;SDS_P1;SDS_P2;PMS_P1;PMS_P2;Temp;Humidity;BMP_temperature;BMP_pressure;BME280_temperature;BME280_humidity;BME280_pressure;Samples;Min_cycle;Max_cycle;Signal;HPM_P1;HPM_P2
2022/03/12 00:00:26;;;;;;;22.98;14.82;;;;;;;9.51;45.12;101173.38;5097936;28;20043;-76
2022/03/12 00:02:52;;;;;;;22.75;12.65;;;;;;;9.53;45.18;101160.66;5093572;28;20034;-76
2022/03/12 00:05:18;;;;;;;19.92;11.55;;;;;;;9.57;45.10;101159.25;5097581;28;20048;-77
2022/03/12 00:07:43;;;;;;;20.50;12.00;;;;;;;9.56;44.78;101173.63;5076461;28;20039;-77
2022/03/12 00:10:13;;;;;;;18.65;10.15;;;;;;;9.54;45.28;101173.00;5095673;28;20028;-77
2022/03/12 00:12:41;;;;;;;22.85;12.63;;;;;;;9.52;45.71;101174.19;5078061;28;20024;-77
2022/03/12 00:15:12;;;;;;;23.30;12.82;;;;;;;9.52;45.72;101168.84;5076476;28;20035;-76
2022/03/12 00:17:45;;;;;;;21.80;11.55;;;;;;;9.51;45.42;101159.22;5097924;28;20055;-78
2022/03/12 00:23:33;;;;;;;22.38;13.18;;;;;;;9.41;46.37;101158.75;5094912;28;20098;-79
2022/03/12 00:25:59;;;;;;;23.40;13.23;;;;;;;9.38;45.92;101172.50;5094581;28;20036;-78
2022/03/12 00:28:25;;;;;;;26.40;12.80;;;;;;;9.40;46.38;101175.78;5079593;28;20042;-78
2022/03/12 00:34:13;;;;;;;22.90;11.98;;;;;;;9.48;46.30;101183.63;5094593;28;20051;-80
2022/03/12 00:36:39;;;;;;;19.17;10.65;;;;;;;9.57;45.67;101185.94;5094220;28;20028;-75
2022/03/12 00:39:08;;;;;;;20.42;10.40;;;;;;;9.54;45.73;101186.34;5075922;28;20020;-78
2022/03/12 00:41:34;;;;;;;23.58;13.23;;;;;;;9.49;46.51;101183.44;5065045;28;20131;-79
2022/03/12 00:43:59;;;;;;;20.00;12.07;;;;;;;9.53;46.39;101194.53;5094171;28;20020;-78
2022/03/12 00:46:27;;;;;;;25.08;12.95;;;;;;;9.50;46.64;101189.59;5096439;28;20082;-78
2022/03/12 00:48:52;;;;;;;28.42;14.82;;;;;;;9.53;46.93;101198.03;5092878;28;20396;-77
2022/03/12 00:51:17;;;;;;;21.35;13.07;;;;;;;9.55;47.90;101206.69;5096700;28;20036;-78
2022/03/12 00:53:43;;;;;;;19.73;12.98;;;;;;;9.47;48.05;101204.16;5094345;28;20051;-78
2022/03/12 00:59:31;;;;;;;27.27;14.65;;;;;;;9.47;48.12;101196.16;5094382;28;20104;-78
2022/03/12 01:01:56;;;;;;;18.80;13.05;;;;;;;9.52;48.47;101203.56;5092723;28;20431;-75
2022/03/12 01:07:44;;;;;;;25.02;12.95;;;;;;;9.49;48.76;101185.28;5094122;28;20047;-76
2022/03/12 01:10:10;;;;;;;28.13;14.25;;;;;;;9.53;49.37;101208.69;5095624;28;20048;-75
2022/03/12 01:15:57;;;;;;;28.50;13.68;;;;;;;9.65;49.31;101202.81;5094353;28;20092;-75
2022/03/12 01:18:24;;;;;;;25.88;14.02;;;;;;;9.59;50.35;101205.25;5075401;28;20036;-75
2022/03/12 01:20:51;;;;;;;23.80;13.18;;;;;;;9.61;50.29;101195.22;5078435;28;20036;-78
2022/03/12 01:26:38;;;;;;;23.52;12.88;;;;;;;9.53;50.86;101200.69;5094023;28;20694;-78
2022/03/12 01:29:04;;;;;;;21.05;12.38;;;;;;;9.48;51.78;101208.47;5092130;28;20020;-78
2022/03/12 01:34:51;;;;;;;23.65;13.68;;;;;;;9.15;55.51;101210.13;5093691;28;20070;-77
2022/03/12 01:40:38;;;;;;;25.02;14.88;;;;;;;8.86;58.65;101209.31;5093913;28;20051;-78
2022/03/12 01:43:04;;;;;;;28.48;14.27;;;;;;;8.71;57.34;101219.25;5075042;28;20019;-78
2022/03/12 01:48:52;;;;;;;26.65;13.38;;;;;;;8.78;59.08;101211.31;5093120;28;20096;-78
2022/03/12 01:54:42;;;;;;;25.02;15.02;;;;;;;8.41;61.78;101225.75;5093375;28;20435;-76
2022/03/12 02:00:41;;;;;;;26.15;14.98;;;;;;;8.05;64.71;101218.56;5093005;28;20066;-76
2022/03/12 02:06:28;;;;;;;26.83;14.02;;;;;;;8.18;65.77;101220.56;5093110;28;20380;-76
2022/03/12 02:12:16;;;;;;;28.08;14.38;;;;;;;8.35;65.54;101212.16;5093085;28;20384;-75
2022/03/12 02:14:41;;;;;;;27.38;14.48;;;;;;;8.40;64.25;101208.13;5095943;28;20032;-74
2022/03/12 02:17:09;;;;;;;29.95;14.85;;;;;;;8.46;64.48;101208.16;5092710;28;20031;-78
2022/03/12 02:19:35;;;;;;;22.77;13.65;;;;;;;8.57;62.96;101212.16;5095557;28;20075;-76
2022/03/12 02:22:07;;;;;;;23.38;13.43;;;;;;;8.51;63.11;101215.59;5092638;28;20115;-76
2022/03/12 02:24:35;;;;;;;25.85;14.32;;;;;;;8.60;64.15;101223.25;5093048;28;20028;-76
2022/03/12 02:27:02;;;;;;;24.88;13.75;;;;;;;8.57;64.47;101209.50;5094734;28;20598;-77
2022/03/12 02:29:28;;;;;;;22.13;13.13;;;;;;;8.58;64.71;101219.13;5092571;28;20124;-76
2022/03/12 02:31:56;;;;;;;25.88;13.05;;;;;;;8.63;63.71;101224.72;5077356;28;20051;-77
2022/03/12 02:34:25;;;;;;;25.40;13.68;;;;;;;8.61;64.88;101203.56;5092408;28;20102;-76
2022/03/12 02:36:52;;;;;;;24.17;13.73;;;;;;;8.65;64.08;101212.84;5095428;28;20043;-76
2022/03/12 02:39:20;;;;;;;26.13;13.65;;;;;;;8.62;65.36;101223.88;5092275;28;20431;-76
2022/03/12 02:41:46;;;;;;;25.40;13.48;;;;;;;8.65;64.79;101231.50;5092211;28;20036;-76
2022/03/12 02:47:35;;;;;;;22.88;12.75;;;;;;;8.77;63.24;101239.00;5091918;28;20081;-76
2022/03/12 02:53:23;;;;;;;25.90;13.85;;;;;;;8.79;63.28;101239.63;5092564;28;20061;-76
2022/03/12 02:55:48;;;;;;;26.65;13.38;;;;;;;8.79;63.61;101236.94;5093945;28;20040;-76
2022/03/12 02:58:17;;;;;;;26.15;13.95;;;;;;;8.72;63.14;101238.75;5090850;28;20119;-76
2022/03/12 03:00:42;;;;;;;28.50;15.55;;;;;;;8.76;63.65;101237.34;5093867;28;20036;-77
2022/03/12 03:03:08;;;;;;;29.00;14.95;;;;;;;8.73;62.91;101248.41;5092067;28;20108;-77
2022/03/12 03:05:46;;;;;;;28.35;15.18;;;;;;;8.74;62.73;101240.19;5092010;28;20020;-77
2022/03/12 03:08:17;;;;;;;27.05;16.17;;;;;;;8.75;63.44;101247.19;5077170;28;20127;-76
2022/03/12 03:10:45;;;;;;;29.25;15.30;;;;;;;8.73;64.18;101248.41;5091535;28;20028;-76
2022/03/12 03:13:16;;;;;;;26.10;13.55;;;;;;;8.67;63.91;101244.63;5076868;28;20368;-76
2022/03/12 03:15:43;;;;;;;27.15;13.15;;;;;;;8.67;63.79;101247.28;5073618;28;20028;-76
2022/03/12 03:18:11;;;;;;;22.80;13.52;;;;;;;8.57;64.66;101238.81;5093834;28;21500;-76
2022/03/12 03:20:37;;;;;;;22.60;13.13;;;;;;;8.48;65.62;101262.09;5092396;28;20031;-74
2022/03/12 03:23:06;;;;;;;25.55;14.45;;;;;;;8.33;66.55;101264.81;5091756;28;20518;-76
2022/03/12 03:25:32;;;;;;;25.17;14.95;;;;;;;8.22;67.25;101272.44;5094567;28;20044;-76
2022/03/12 03:27:57;;;;;;;22.63;12.18;;;;;;;8.14;67.58;101254.75;5091691;28;20031;-77
2022/03/12 03:33:45;;;;;;;24.42;13.73;;;;;;;8.04;69.76;101256.88;5091996;28;20548;-76
2022/03/12 03:39:32;;;;;;;19.88;11.63;;;;;;;7.95;72.06;101256.16;5091842;28;20586;-76
2022/03/12 03:45:27;;;;;;;22.17;12.10;;;;;;;7.85;72.46;101266.28;5091696;28;20047;-75
2022/03/12 03:47:52;;;;;;;21.55;12.70;;;;;;;7.80;73.34;101268.66;5094460;28;20043;-75
2022/03/12 03:50:20;;;;;;;24.75;13.25;;;;;;;7.69;73.52;101274.44;5091248;28;20055;-75
2022/03/12 03:52:46;;;;;;;22.88;13.50;;;;;;;7.54;73.20;101269.16;5091437;28;20036;-75
2022/03/12 03:58:34;;;;;;;23.73;12.98;;;;;;;7.25;74.33;101277.09;5091589;28;20390;-75
2022/03/12 04:04:21;;;;;;;22.08;13.18;;;;;;;7.10;75.67;101275.22;5091497;28;20051;-75
2022/03/12 04:06:47;;;;;;;24.38;13.80;;;;;;;7.07;75.60;101286.22;5093773;28;20458;-75
2022/03/12 04:09:12;;;;;;;26.25;14.00;;;;;;;7.02;77.81;101280.63;5090990;28;20100;-75
2022/03/12 04:14:59;;;;;;;21.92;12.63;;;;;;;6.88;80.29;101297.34;5091156;28;20113;-75
2022/03/12 04:17:24;;;;;;;25.83;14.25;;;;;;;6.81;80.49;101291.94;5092165;28;20055;-75
2022/03/12 04:19:49;;;;;;;24.02;14.00;;;;;;;6.77;82.38;101297.78;5074948;28;20033;-75
2022/03/12 04:25:37;;;;;;;22.42;12.27;;;;;;;6.64;84.14;101301.00;5094899;28;20046;-75
2022/03/12 04:28:02;;;;;;;23.38;12.00;;;;;;;6.66;85.25;101307.00;5094561;28;20106;-76
2022/03/12 04:30:28;;;;;;;23.98;12.20;;;;;;;6.58;85.95;101307.03;5096266;28;20051;-76
2022/03/12 04:32:54;;;;;;;24.55;13.07;;;;;;;6.56;86.39;101302.91;5094327;28;20028;-76
2022/03/12 04:35:21;;;;;;;23.77;13.13;;;;;;;6.53;86.48;101302.25;5077717;28;20047;-75
2022/03/12 04:37:46;;;;;;;25.60;13.18;;;;;;;6.52;86.54;101311.22;5095349;28;20028;-76
2022/03/12 04:40:18;;;;;;;24.60;12.65;;;;;;;6.45;86.01;101304.16;5094049;28;20039;-77
2022/03/12 04:42:44;;;;;;;30.00;14.05;;;;;;;6.44;85.30;101297.19;5097255;28;20092;-76
2022/03/12 04:45:15;;;;;;;24.67;13.07;;;;;;;6.52;84.71;101305.09;5092739;28;20115;-76
2022/03/12 04:47:43;;;;;;;22.90;13.13;;;;;;;6.43;85.43;101306.16;5097060;28;20040;-77
2022/03/12 04:53:30;;;;;;;26.85;13.68;;;;;;;6.45;84.95;101304.97;5094347;28;20463;-77
2022/03/12 04:55:56;;;;;;;24.30;13.25;;;;;;;6.46;85.51;101308.47;5094112;28;20059;-76
2022/03/12 04:58:22;;;;;;;22.60;12.52;;;;;;;6.38;86.66;101312.00;5093898;28;20035;-76
2022/03/12 05:00:47;;;;;;;24.88;12.93;;;;;;;6.26;86.73;101310.72;5096998;28;20043;-75
2022/03/12 05:03:18;;;;;;;24.08;12.98;;;;;;;6.30;87.41;101321.81;5092563;28;20028;-76
2022/03/12 05:05:46;;;;;;;23.08;12.77;;;;;;;6.30;87.80;101316.50;5096856;28;20507;-74
2022/03/12 05:08:15;;;;;;;23.80;13.23;;;;;;;6.29;88.61;101328.13;5092398;28;20444;-75
2022/03/12 05:10:42;;;;;;;21.85;11.63;;;;;;;6.19;89.41;101325.69;5093594;28;20115;-75
2022/03/12 05:13:09;;;;;;;21.83;12.52;;;;;;;6.16;89.16;101318.09;5096869;28;20511;-75
2022/03/12 05:18:57;;;;;;;25.42;13.20;;;;;;;6.08;90.61;101323.44;5094175;28;20047;-75
2022/03/12 05:21:23;;;;;;;24.25;12.80;;;;;;;6.08;90.21;101321.63;5093595;28;20032;-75
2022/03/12 05:23:48;;;;;;;27.80;12.38;;;;;;;6.05;90.77;101329.06;5095366;28;20159;-74
2022/03/12 05:26:13;;;;;;;24.85;12.68;;;;;;;6.07;90.54;101329.72;5093435;28;20028;-75
2022/03/12 05:28:39;;;;;;;25.08;12.45;;;;;;;6.01;91.04;101331.25;5093562;28;20044;-75
2022/03/12 05:31:05;;;;;;;21.20;11.68;;;;;;;6.06;90.56;101341.34;5096341;28;20048;-75
2022/03/12 05:33:31;;;;;;;24.13;13.57;;;;;;;6.12;91.29;101356.59;5093238;28;20030;-74
2022/03/12 05:35:57;;;;;;;22.35;12.43;;;;;;;6.08;91.37;101344.69;5096279;28;20071;-74
2022/03/12 05:38:24;;;;;;;24.80;13.15;;;;;;;6.11;90.89;101354.94;5093140;28;20020;-74
2022/03/12 05:40:50;;;;;;;22.70;12.02;;;;;;;6.08;91.16;101357.94;5094159;28;20032;-75
2022/03/12 05:43:17;;;;;;;21.60;12.25;;;;;;;6.09;91.39;101368.41;5095428;28;20488;-75
2022/03/12 05:45:48;;;;;;;21.55;13.00;;;;;;;6.07;92.10;101374.84;5074826;28;20028;-75
2022/03/12 05:48:15;;;;;;;21.98;12.15;;;;;;;6.04;92.65;101367.22;5078348;28;20040;-74
2022/03/12 05:50:43;;;;;;;28.50;13.30;;;;;;;5.99;93.38;101382.84;5074817;28;20061;-75
2022/03/12 05:53:10;;;;;;;21.58;11.43;;;;;;;5.99;94.81;101377.53;5094778;28;20052;-75
2022/03/12 05:55:39;;;;;;;19.95;11.88;;;;;;;5.96;95.31;101361.97;5074905;28;20027;-75
2022/03/12 05:58:07;;;;;;;20.42;11.23;;;;;;;6.04;95.05;101373.38;5091659;28;20028;-74
2022/03/12 06:00:33;;;;;;;19.13;11.80;;;;;;;6.01;96.12;101375.53;5078107;28;20169;-75
2022/03/12 06:02:59;;;;;;;22.92;12.25;;;;;;;6.00;96.51;101377.38;5092871;28;20067;-75
2022/03/12 06:05:25;;;;;;;21.88;11.32;;;;;;;6.00;97.09;101376.53;5095903;28;20032;-75
2022/03/12 06:07:52;;;;;;;22.52;11.80;;;;;;;6.04;97.17;101380.50;5092922;28;20513;-74
2022/03/12 06:10:20;;;;;;;20.42;11.43;;;;;;;6.09;97.33;101378.19;5092628;28;20384;-74
2022/03/12 06:12:47;;;;;;;21.40;11.40;;;;;;;6.09;98.27;101370.22;5095702;28;20135;-74
2022/03/12 06:18:36;;;;;;;21.25;11.60;;;;;;;6.46;97.46;101380.19;5093035;28;20475;-74
2022/03/12 06:24:23;;;;;;;22.42;10.63;;;;;;;6.41;97.70;101388.66;5092795;28;20077;-77
2022/03/12 06:30:12;;;;;;;22.23;10.68;;;;;;;6.59;97.39;101384.91;5092946;28;20439;-74
2022/03/12 06:32:42;;;;;;;18.02;9.73;;;;;;;6.62;98.35;101389.88;5091148;28;20032;-75
2022/03/12 06:35:08;;;;;;;19.08;11.30;;;;;;;6.65;98.43;101394.84;5094337;28;20042;-75
2022/03/12 06:37:33;;;;;;;19.40;10.65;;;;;;;6.66;98.53;101389.38;5092424;28;20103;-76
2022/03/12 06:40:00;;;;;;;22.48;11.73;;;;;;;6.73;98.46;101385.00;5092293;28;20032;-77
2022/03/12 06:45:50;;;;;;;20.08;11.50;;;;;;;6.83;99.14;101390.91;5092201;28;20392;-76
2022/03/12 06:48:16;;;;;;;18.38;10.85;;;;;;;6.99;98.04;101405.94;5095343;28;20036;-75
2022/03/12 06:50:42;;;;;;;19.38;11.57;;;;;;;7.03;98.16;101409.91;5073895;28;20108;-76
2022/03/12 06:53:08;;;;;;;17.75;10.27;;;;;;;7.04;98.32;101406.25;5095205;28;20039;-76
2022/03/12 06:58:55;;;;;;;20.58;10.55;;;;;;;7.32;98.47;101411.84;5092513;28;20549;-75
2022/03/12 07:01:20;;;;;;;19.00;10.18;;;;;;;7.40;97.92;101403.78;5090723;28;20063;-74
2022/03/12 07:03:45;;;;;;;15.27;9.48;;;;;;;7.59;96.80;101409.63;5090417;28;20060;-73
2022/03/12 07:06:11;;;;;;;17.08;10.25;;;;;;;7.78;96.98;101420.56;5093624;28;20032;-75
2022/03/12 07:11:58;;;;;;;16.45;10.10;;;;;;;7.95;96.29;101420.41;5091898;28;20519;-73
2022/03/12 07:14:27;;;;;;;16.80;9.57;;;;;;;8.00;96.00;101428.69;5090452;28;20111;-74
2022/03/12 07:16:54;;;;;;;23.60;10.23;;;;;;;8.02;97.09;101429.31;5094771;28;20170;-74
2022/03/12 07:26:14;;;;;;;16.00;9.25;;;;;;;8.37;95.39;101436.59;5091773;28;20061;-76
2022/03/12 07:32:01;;;;;;;15.27;8.95;;;;;;;8.79;95.00;101434.25;5091338;28;20051;-77
2022/03/12 07:34:27;;;;;;;16.55;9.40;;;;;;;9.00;94.18;101448.47;5094640;28;20039;-76
2022/03/12 07:40:15;;;;;;;12.57;7.82;;;;;;;9.79;90.61;101456.38;5094133;28;20089;-77
2022/03/12 07:46:03;;;;;;;16.70;9.82;;;;;;;10.38;87.22;101461.31;5091593;28;20495;-74
2022/03/12 07:51:50;;;;;;;11.68;8.38;;;;;;;11.30;82.56;101479.59;5078396;28;20131;-78
2022/03/12 07:57:38;;;;;;;14.43;8.40;;;;;;;11.78;80.51;101471.41;5093972;28;20594;-76
2022/03/12 08:00:06;;;;;;;15.70;9.50;;;;;;;11.99;79.02;101471.19;5096694;28;20089;-75
2022/03/12 08:05:53;;;;;;;12.13;8.57;;;;;;;11.87;78.76;101477.41;5095004;28;20085;-81
2022/03/12 08:11:40;;;;;;;13.48;7.70;;;;;;;12.57;76.56;101479.31;5095025;28;20039;-80
2022/03/12 08:14:11;;;;;;;12.63;8.85;;;;;;;12.35;75.86;101488.66;5094636;28;20024;-83
2022/03/12 08:16:37;;;;;;;10.80;6.82;;;;;;;11.74;79.54;101504.97;5097834;28;20472;-80
2022/03/12 08:22:24;;;;;;;15.02;8.75;;;;;;;11.66;80.55;101494.47;5094935;28;20058;-81
2022/03/12 08:24:51;;;;;;;13.70;9.05;;;;;;;11.28;82.13;101496.88;5094390;28;20421;-74
2022/03/12 08:27:16;;;;;;;11.00;7.20;;;;;;;11.36;82.90;101505.56;5076108;28;20020;-77
2022/03/12 08:29:43;;;;;;;11.55;7.45;;;;;;;11.39;82.83;101505.13;5097490;28;20059;-76
2022/03/12 08:32:09;;;;;;;17.30;8.20;;;;;;;11.48;82.24;101519.97;5094165;28;20028;-79
2022/03/12 08:34:35;;;;;;;16.60;9.18;;;;;;;11.20;83.74;101500.56;5096422;28;20135;-77
2022/03/12 08:37:01;;;;;;;14.15;9.90;;;;;;;11.09;84.77;101514.53;5094376;28;20547;-77
2022/03/12 08:42:48;;;;;;;17.15;9.45;;;;;;;12.03;79.60;101512.63;5093992;28;20047;-78
2022/03/12 08:45:13;;;;;;;17.00;8.15;;;;;;;12.24;79.90;101518.81;5093856;28;20028;-79
2022/03/12 08:47:40;;;;;;;12.90;8.25;;;;;;;12.16;79.49;101533.28;5096996;28;20492;-76
2022/03/12 08:53:27;;;;;;;13.10;9.07;;;;;;;12.16;78.08;101519.03;5094135;28;20082;-78
2022/03/12 08:55:52;;;;;;;15.43;8.77;;;;;;;12.39;78.25;101519.41;5094270;28;20067;-77
2022/03/12 08:58:18;;;;;;;12.98;7.35;;;;;;;12.94;74.83;101530.59;5097135;28;20068;-79
2022/03/12 09:00:44;;;;;;;14.38;8.30;;;;;;;12.39;76.99;101522.91;5092649;28;20031;-77
2022/03/12 09:03:11;;;;;;;13.85;9.20;;;;;;;12.01;78.82;101528.09;5093955;28;20393;-77
2022/03/12 09:05:37;;;;;;;23.48;8.57;;;;;;;12.09;79.78;101524.38;5075280;28;20044;-77
2022/03/12 09:08:03;;;;;;;14.00;9.02;;;;;;;12.11;78.82;101530.34;5093138;28;20031;-75
2022/03/12 09:13:50;;;;;;;18.75;8.02;;;;;;;12.68;77.07;101526.97;5094044;28;20397;-77
2022/03/12 09:19:37;;;;;;;13.48;6.30;;;;;;;12.49;73.12;101527.84;5081292;28;20043;-82
2022/03/12 09:22:05;;;;;;;11.77;6.33;;;;;;;12.31;75.77;101541.91;5096756;28;20397;-80
2022/03/12 09:27:53;;;;;;;15.35;6.82;;;;;;;11.92;76.76;101541.94;5093696;28;20446;-79
2022/03/12 09:33:41;;;;;;;13.13;6.00;;;;;;;12.29;75.69;101535.09;5093873;28;20084;-76
2022/03/12 09:39:28;;;;;;;9.85;5.50;;;;;;;12.60;71.69;101542.47;5096074;28;20066;-76
2022/03/12 09:45:15;;;;;;;12.52;5.68;;;;;;;13.56;67.35;101535.25;5093796;28;20509;-78
2022/03/12 09:51:02;;;;;;;14.75;5.50;;;;;;;13.11;66.61;101529.09;5093339;28;20123;-77
2022/03/12 09:56:49;;;;;;;13.57;4.47;;;;;;;13.22;64.85;101524.94;5093405;28;20042;-77
2022/03/12 10:02:36;;;;;;;8.93;4.25;;;;;;;12.59;66.06;101540.81;5093211;28;20281;-77
2022/03/12 10:05:02;;;;;;;11.13;4.60;;;;;;;12.50;67.86;101542.91;5094787;28;20040;-76
2022/03/12 10:07:27;;;;;;;7.38;3.35;;;;;;;12.88;66.04;101550.25;5092890;28;20032;-79
2022/03/12 10:13:14;;;;;;;8.80;4.20;;;;;;;13.16;65.78;101556.13;5093066;28;20047;-77
2022/03/12 10:15:40;;;;;;;9.23;4.45;;;;;;;13.56;64.26;101566.69;5094990;28;20059;-76
2022/03/12 10:21:27;;;;;;;11.50;4.15;;;;;;;13.62;62.97;101550.53;5092961;28;20043;-77
2022/03/12 10:27:14;;;;;;;13.88;4.50;;;;;;;13.61;63.12;101538.16;5080988;28;20055;-76
2022/03/12 10:29:39;;;;;;;9.97;4.40;;;;;;;13.09;63.36;101549.97;5095482;28;20040;-76
2022/03/12 10:32:45;;;;;;;15.70;4.43;;;;;;;12.76;64.99;101550.09;5092357;28;20305;-76
2022/03/12 10:35:12;;;;;;;13.45;4.80;;;;;;;13.17;63.93;101541.69;5009841;28;20791;-76
2022/03/12 10:40:59;;;;;;;10.32;3.88;;;;;;;13.26;62.41;101547.63;5010590;28;20449;-77
2022/03/12 10:46:45;;;;;;;17.83;4.95;;;;;;;13.05;63.56;101564.84;5010197;28;20045;-75
2022/03/12 10:52:34;;;;;;;13.18;4.15;;;;;;;14.85;58.25;101558.78;5035002;28;20289;-80
2022/03/12 10:55:10;;;;;;;16.63;5.50;;;;;;;15.78;54.87;101554.88;5092234;28;20032;-78
2022/03/12 11:00:59;;;;;;;8.30;4.13;;;;;;;16.38;52.47;101557.41;5079738;28;20507;-78
2022/03/12 11:06:46;;;;;;;14.10;4.22;;;;;;;14.57;55.74;101543.13;5092512;28;20120;-78
2022/03/12 11:12:36;;;;;;;13.20;4.85;;;;;;;13.64;61.56;101553.84;5092244;28;20119;-77
2022/03/12 11:18:23;;;;;;;13.32;4.70;;;;;;;14.19;58.49;101554.03;5092309;28;20050;-79
2022/03/12 11:24:22;;;;;;;12.32;4.13;;;;;;;14.59;58.39;101556.38;5093524;28;20362;-77
2022/03/12 11:26:59;;;;;;;14.02;4.07;;;;;;;14.88;56.26;101566.41;5092033;28;20088;-81
2022/03/12 11:32:50;;;;;;;10.82;3.65;;;;;;;14.53;54.96;101562.66;5095507;28;20100;-78
2022/03/12 11:38:37;;;;;;;9.15;3.40;;;;;;;14.46;56.16;101553.84;5095511;28;20495;-80
2022/03/12 11:44:26;;;;;;;9.40;3.25;;;;;;;15.34;51.98;101542.66;5095812;28;20043;-83
2022/03/12 11:50:18;;;;;;;9.82;3.10;;;;;;;14.64;52.21;101555.69;5080844;28;20149;-87
2022/03/12 11:52:44;;;;;;;10.68;3.00;;;;;;;14.80;53.77;101558.63;5097346;28;20131;-76
2022/03/12 11:55:23;;;;;;;10.73;3.40;;;;;;;14.89;53.34;101559.16;5093870;28;20039;-83
2022/03/12 11:57:50;;;;;;;9.18;3.17;;;;;;;15.29;52.61;101554.09;5098270;28;20151;-79
2022/03/12 12:03:37;;;;;;;18.95;3.92;;;;;;;16.25;49.79;101555.78;5081415;28;20043;-79
2022/03/12 12:06:02;;;;;;;14.82;3.60;;;;;;;17.04;48.38;101548.88;5078151;28;20040;-80
2022/03/12 12:11:49;;;;;;;8.48;3.03;;;;;;;16.89;45.87;101520.75;5095023;28;20289;-80
2022/03/12 12:14:18;;;;;;;9.87;3.20;;;;;;;17.63;45.87;101529.72;5094980;28;20403;-78
2022/03/12 12:16:43;;;;;;;7.80;3.63;;;;;;;17.37;43.90;101538.44;5097606;28;20282;-81
2022/03/12 12:19:09;;;;;;;10.55;3.80;;;;;;;16.85;44.88;101528.50;5076444;28;20032;-79
2022/03/12 12:21:34;;;;;;;11.65;3.35;;;;;;;16.46;45.53;101540.03;5097754;28;20118;-80
2022/03/12 12:24:27;;;;;;;13.52;3.53;;;;;;;16.76;46.14;101523.69;5094647;28;20020;-80
2022/03/12 12:27:04;;;;;;;10.23;3.75;;;;;;;16.75;45.60;101536.38;5076542;28;20032;-80
2022/03/12 12:30:01;;;;;;;8.38;3.60;;;;;;;16.89;46.55;101526.97;5096157;28;20033;-79
2022/03/12 12:32:29;;;;;;;9.57;3.40;;;;;;;17.84;42.40;101533.63;5090155;28;20048;-80
2022/03/12 12:35:04;;;;;;;10.65;3.70;;;;;;;16.51;45.30;101522.09;5096250;28;20054;-79
2022/03/12 12:37:56;;;;;;;9.00;3.78;;;;;;;16.25;46.74;101527.97;5094125;28;20035;-79
2022/03/12 12:43:46;;;;;;;12.82;3.38;;;;;;;16.62;44.88;101518.53;5093666;28;20534;-80
2022/03/12 12:46:17;;;;;;;8.25;3.33;;;;;;;16.57;45.64;101515.75;5096174;28;20064;-79
2022/03/12 12:49:00;;;;;;;9.88;3.05;;;;;;;17.30;44.55;101520.47;5094104;28;20364;-79
2022/03/12 12:51:26;;;;;;;9.05;2.88;;;;;;;17.68;44.21;101510.09;5097326;28;20114;-78
2022/03/12 12:53:53;;;;;;;9.45;2.83;;;;;;;18.54;40.84;101514.94;5093977;28;20460;-78
2022/03/12 12:56:27;;;;;;;8.25;3.17;;;;;;;17.84;41.73;101509.28;5095894;28;20219;-78
2022/03/12 12:58:52;;;;;;;7.88;3.65;;;;;;;17.63;42.07;101511.59;5075656;28;20687;-78
2022/03/12 13:01:20;;;;;;;12.30;3.20;;;;;;;16.81;43.51;101521.13;5093725;28;20039;-79
2022/03/12 13:03:47;;;;;;;12.93;3.65;;;;;;;15.77;46.76;101513.59;5096829;28;20116;-80
2022/03/12 13:06:32;;;;;;;14.48;3.10;;;;;;;15.69;46.69;101513.94;5075473;28;20504;-79
2022/03/12 13:08:58;;;;;;;9.40;3.38;;;;;;;16.05;46.11;101504.84;5095614;28;20044;-79
2022/03/12 13:11:28;;;;;;;12.00;3.92;;;;;;;15.66;46.98;101506.31;5093474;28;20120;-78
2022/03/12 13:13:59;;;;;;;10.27;3.10;;;;;;;15.88;46.08;101490.41;5096879;28;20135;-79
2022/03/12 13:16:25;;;;;;;13.73;3.03;;;;;;;16.28;45.82;101489.72;5075783;28;20089;-79
2022/03/12 13:18:51;;;;;;;10.35;3.20;;;;;;;16.81;43.23;101494.13;5092725;28;20035;-80
2022/03/12 13:21:31;;;;;;;10.77;3.13;;;;;;;17.25;43.80;101496.06;5096799;28;20048;-79
2022/03/12 13:23:57;;;;;;;12.15;3.75;;;;;;;17.54;43.36;101496.03;5092504;28;20105;-78
2022/03/12 13:26:26;;;;;;;9.98;2.88;;;;;;;17.64;43.23;101486.22;5092032;28;20476;-79
2022/03/12 13:28:53;;;;;;;14.75;3.05;;;;;;;18.36;43.13;101492.75;5093759;28;20062;-78
2022/03/12 13:34:40;;;;;;;11.75;2.92;;;;;;;18.50;40.24;101469.63;5093972;28;20089;-79
2022/03/12 13:37:06;;;;;;;9.25;3.35;;;;;;;18.39;40.08;101484.13;5095554;28;20493;-79
2022/03/12 13:39:36;;;;;;;9.90;3.35;;;;;;;17.81;41.53;101480.00;5092218;28;20039;-78
2022/03/12 13:42:01;;;;;;;12.15;3.35;;;;;;;16.66;44.11;101486.50;5093470;28;20484;-79
2022/03/12 13:44:26;;;;;;;9.43;3.40;;;;;;;16.18;46.01;101484.06;5095346;28;20076;-79
2022/03/12 13:46:52;;;;;;;14.50;3.23;;;;;;;15.50;47.45;101494.28;5093328;28;20035;-79
2022/03/12 13:49:20;;;;;;;10.10;3.50;;;;;;;15.44;49.59;101495.22;5096275;28;20383;-80
2022/03/12 13:51:53;;;;;;;15.75;6.85;;;;;;;15.66;49.29;101492.84;5092032;28;20039;-79
2022/03/12 13:54:23;;;;;;;13.45;4.10;;;;;;;15.59;48.65;101492.09;5093826;28;20032;-80
2022/03/12 13:56:48;;;;;;;12.35;3.58;;;;;;;15.27;49.68;101478.03;5076861;28;20109;-79
2022/03/12 13:59:21;;;;;;;15.10;3.35;;;;;;;15.32;48.79;101485.44;5093090;28;20452;-80
2022/03/12 14:01:49;;;;;;;10.52;3.38;;;;;;;15.31;48.90;101491.88;5095053;28;20051;-79
2022/03/12 14:04:35;;;;;;;13.20;3.15;;;;;;;15.05;49.04;101493.91;5091650;28;20024;-79
2022/03/12 14:07:13;;;;;;;11.52;3.60;;;;;;;15.06;49.29;101487.47;5095555;28;20048;-79
2022/03/12 14:09:38;;;;;;;10.48;3.22;;;;;;;15.04;50.61;101494.13;5091881;28;20019;-79
2022/03/12 14:12:04;;;;;;;12.50;3.08;;;;;;;15.30;50.82;101482.97;5096059;28;20563;-78
2022/03/12 14:14:30;;;;;;;11.80;3.30;;;;;;;15.75;48.35;101488.75;5093106;28;20354;-79
2022/03/12 14:17:04;;;;;;;15.85;4.10;;;;;;;15.49;48.88;101491.81;5092663;28;20050;-78
2022/03/12 14:19:32;;;;;;;11.43;3.10;;;;;;;15.09;49.69;101499.66;5095781;28;20511;-76
2022/03/12 14:22:00;;;;;;;10.68;3.83;;;;;;;14.98;49.77;101492.34;5092760;28;20031;-78
2022/03/12 14:27:49;;;;;;;7.03;3.05;;;;;;;14.85;50.61;101488.78;5078840;28;20503;-77
2022/03/12 14:30:15;;;;;;;12.15;4.07;;;;;;;14.78;50.61;101490.72;5095085;28;20108;-79
2022/03/12 14:32:41;;;;;;;13.50;4.18;;;;;;;14.72;50.63;101480.84;5092904;28;20406;-79
2022/03/12 14:35:10;;;;;;;9.45;3.65;;;;;;;14.86;50.63;101479.66;5074663;28;20571;-78
2022/03/12 14:37:35;;;;;;;15.38;3.72;;;;;;;14.99;50.17;101478.63;5095924;28;20149;-77
2022/03/12 14:43:26;;;;;;;13.70;4.60;;;;;;;14.97;51.72;101482.59;5077265;28;20082;-74
2022/03/12 14:49:20;;;;;;;12.32;3.40;;;;;;;14.99;51.50;101483.19;5092878;28;20130;-76
2022/03/12 14:55:09;;;;;;;12.93;3.58;;;;;;;14.95;51.04;101463.97;5083638;28;20074;-76
2022/03/12 15:00:57;;;;;;;15.23;3.45;;;;;;;15.38;51.01;101453.03;5092720;28;20078;-77
2022/03/12 15:06:44;;;;;;;9.52;3.05;;;;;;;15.40;50.31;101450.09;5092018;28;20092;-75
2022/03/12 15:12:40;;;;;;;12.18;3.35;;;;;;;15.83;48.67;101440.91;5092991;28;20042;-74
2022/03/12 15:18:30;;;;;;;12.93;4.15;;;;;;;15.90;49.40;101438.91;5092683;28;20046;-78
2022/03/12 15:24:17;;;;;;;10.38;3.78;;;;;;;15.66;50.42;101433.53;5080042;28;20096;-79
2022/03/12 15:30:12;;;;;;;9.75;3.40;;;;;;;14.76;52.55;101438.97;5091925;28;20319;-76
2022/03/12 15:32:37;;;;;;;;;;;;;;;14.92;52.71;101442.06;5094268;28;20055;-77
2022/03/12 15:38:25;;;;;;;11.82;5.28;;;;;;;15.35;54.12;101436.50;5091935;28;20038;-78
2022/03/12 15:40:50;;;;;;;12.73;6.30;;;;;;;15.45;54.86;101447.53;5090436;28;20372;-79
2022/03/12 15:43:15;;;;;;;20.60;7.55;;;;;;;15.34;55.96;101435.69;5093669;28;20342;-76
2022/03/12 15:45:44;;;;;;;15.68;6.63;;;;;;;15.25;56.66;101441.59;5090244;28;20024;-80
2022/03/12 15:54:53;;;;;;;16.63;7.40;;;;;;;14.80;56.32;101420.50;5091547;28;20047;-78
2022/03/12 16:00:43;;;;;;;17.83;6.60;;;;;;;14.64;57.41;101416.56;5091950;28;20051;-78
2022/03/12 16:06:30;;;;;;;10.73;6.28;;;;;;;14.45;57.84;101425.69;5085530;28;20044;-78